createdAt,value
2023-09-08T00:03:07.432Z,21.10
2023-09-08T00:08:11.690Z,20.83
2023-09-08T00:13:15.278Z,20.65
2023-09-08T00:18:20.452Z,20.86
2023-09-08T00:23:24.246Z,19.86
2023-09-08T00:28:27.929Z,20.09
2023-09-08T00:33:33.023Z,20.07
2023-09-08T00:38:36.901Z,20.40
2023-09-08T00:43:41.155Z,20.11
2023-09-08T00:48:46.873Z,20.13
2023-09-08T00:53:51.743Z,19.90
2023-09-08T00:58:55.574Z,20.18
2023-09-08T01:04:00.585Z,18.49
2023-09-08T01:09:04.967Z,19.63
2023-09-08T01:14:08.624Z,19.72
2023-09-08T01:19:17.082Z,19.88
2023-09-08T01:24:42.074Z,19.93
2023-09-08T01:29:49.687Z,18.48
2023-09-08T01:34:54.020Z,19.36
2023-09-08T01:39:57.577Z,19.58
2023-09-08T01:45:02.591Z,19.13
2023-09-08T01:50:06.992Z,19.28
2023-09-08T01:55:13.152Z,19.35
2023-09-08T02:00:18.576Z,19.04
2023-09-08T02:05:22.455Z,18.83
2023-09-08T02:10:26.454Z,18.92
2023-09-08T02:15:31.554Z,19.09
2023-09-08T02:20:35.637Z,19.00
2023-09-08T02:25:39.480Z,18.94
2023-09-08T02:30:44.618Z,17.43
2023-09-08T02:35:48.403Z,18.83
2023-09-08T02:40:53.581Z,18.68
2023-09-08T02:45:58.810Z,18.76
2023-09-08T02:51:02.711Z,18.65
2023-09-08T02:56:06.798Z,18.59
2023-09-08T03:01:16.042Z,18.53
2023-09-08T03:06:21.761Z,18.45
2023-09-08T03:11:27.005Z,17.86
2023-09-08T03:16:32.133Z,17.88
2023-09-08T03:21:35.996Z,17.80
2023-09-08T03:26:41.499Z,18.18
2023-09-08T03:31:46.666Z,18.14
2023-09-08T03:36:51.472Z,17.86
2023-09-08T03:41:55.182Z,17.66
2023-09-08T03:47:02.994Z,17.69
2023-09-08T03:52:07.828Z,17.56
2023-09-08T03:57:11.541Z,17.76
2023-09-08T04:02:16.576Z,16.84
2023-09-08T04:07:20.489Z,17.69
2023-09-08T04:12:24.237Z,17.66
2023-09-08T04:17:30.386Z,17.28
2023-09-08T04:22:34.386Z,17.16
2023-09-08T04:27:39.013Z,17.52
2023-09-08T04:32:45.034Z,17.51
2023-09-08T04:37:49.131Z,17.27
2023-09-08T04:42:53.048Z,17.42
2023-09-08T04:47:58.381Z,17.44
2023-09-08T04:53:02.741Z,17.32
2023-09-08T04:58:06.756Z,16.84
2023-09-08T05:03:12.083Z,17.14
2023-09-08T05:08:16.046Z,17.35
2023-09-08T05:13:30.699Z,16.72
2023-09-08T05:18:38.062Z,17.36
2023-09-08T05:23:42.178Z,16.97
2023-09-08T05:28:48.314Z,16.96
2023-09-08T05:33:53.536Z,17.37
2023-09-08T05:38:57.943Z,17.37
2023-09-08T05:44:02.428Z,17.24
2023-09-08T05:49:08.013Z,17.48
2023-09-08T05:54:12.364Z,17.48
2023-09-08T05:59:16.498Z,17.50
2023-09-08T06:04:23.453Z,17.33
2023-09-08T06:09:28.506Z,17.67
2023-09-08T06:14:33.046Z,17.72
2023-09-08T06:19:38.644Z,17.82
2023-09-08T06:24:43.452Z,17.89
2023-09-08T06:29:47.466Z,17.98
2023-09-08T06:34:54.481Z,18.10
2023-09-08T06:39:58.519Z,18.16
2023-09-08T06:45:05.257Z,18.26
2023-09-08T06:50:11.526Z,18.28
2023-09-08T06:55:17.720Z,18.48
2023-09-08T07:00:22.801Z,17.37
2023-09-08T07:05:28.459Z,18.58
2023-09-08T07:10:32.759Z,18.85
2023-09-08T07:15:36.945Z,19.00
2023-09-08T07:20:42.919Z,18.92
2023-09-08T07:25:48.478Z,18.78
2023-09-08T07:30:53.549Z,19.44
2023-09-08T07:36:00.367Z,19.33
2023-09-08T07:41:04.946Z,19.78
2023-09-08T07:46:10.010Z,19.96
2023-09-08T07:51:15.382Z,20.14
2023-09-08T07:56:19.298Z,19.74
2023-09-08T08:01:23.406Z,19.80
2023-09-08T08:06:29.632Z,20.69
2023-09-08T08:11:33.435Z,20.67
2023-09-08T08:16:37.928Z,20.97
2023-09-08T08:21:44.207Z,21.18
2023-09-08T08:26:48.598Z,21.19
2023-09-08T08:31:52.469Z,21.52
2023-09-08T08:36:57.820Z,21.74
2023-09-08T08:42:09.063Z,21.75
2023-09-08T08:47:14.020Z,22.08
2023-09-08T08:52:20.555Z,22.01
2023-09-08T08:57:24.893Z,22.32
2023-09-08T09:02:31.045Z,21.30
2023-09-08T09:07:36.338Z,22.88
2023-09-08T09:12:41.189Z,22.90
2023-09-08T09:17:46.161Z,23.25
2023-09-08T09:22:51.473Z,23.46
2023-09-08T09:27:56.296Z,23.67
2023-09-08T09:33:04.251Z,23.64
2023-09-08T09:38:10.874Z,24.10
2023-09-08T09:43:17.224Z,24.17
2023-09-08T09:48:24.364Z,24.41
2023-09-08T09:53:31.614Z,24.82
2023-09-08T09:58:36.095Z,24.73
2023-09-08T10:03:41.679Z,25.04
2023-09-08T10:08:47.542Z,25.54
2023-09-08T10:13:56.147Z,25.67
2023-09-08T10:19:02.034Z,25.79
2023-09-08T10:24:17.267Z,25.89
2023-09-08T10:29:21.864Z,25.68
2023-09-08T10:34:27.678Z,26.67
2023-09-08T10:39:37.292Z,27.02
2023-09-08T10:44:41.300Z,27.39
2023-09-08T10:49:44.945Z,26.91
2023-09-08T10:54:52.279Z,27.57
2023-09-08T10:59:57.855Z,27.73
2023-09-08T11:05:02.379Z,26.88
2023-09-08T11:10:10.322Z,27.74
2023-09-08T11:15:14.534Z,28.09
2023-09-08T11:20:19.344Z,28.11
2023-09-08T11:25:25.353Z,27.97
2023-09-08T11:30:29.487Z,28.37
2023-09-08T11:35:34.577Z,28.91
2023-09-08T11:40:40.491Z,29.08
2023-09-08T11:45:45.897Z,29.24
2023-09-08T11:50:49.973Z,29.34
2023-09-08T11:55:55.661Z,28.41
2023-09-08T12:01:00.318Z,29.32
2023-09-08T12:06:04.836Z,29.62
2023-09-08T12:11:11.015Z,29.71
2023-09-08T12:16:23.491Z,29.61
2023-09-08T12:21:27.563Z,29.95
2023-09-08T12:26:33.104Z,29.93
2023-09-08T12:31:37.513Z,29.84
2023-09-08T12:36:47.351Z,29.72
2023-09-08T12:41:55.045Z,30.25
2023-09-08T12:47:00.692Z,30.87
2023-09-08T12:52:04.952Z,30.88
2023-09-08T12:57:10.552Z,31.16
2023-09-08T13:02:15.160Z,31.06
2023-09-08T13:07:19.714Z,31.28
2023-09-08T13:12:24.922Z,29.90
2023-09-08T13:17:28.964Z,31.43
2023-09-08T13:22:32.937Z,31.58
2023-09-08T13:27:38.396Z,31.64
2023-09-08T13:32:43.931Z,31.63
2023-09-08T13:37:48.156Z,30.29
2023-09-08T13:42:53.583Z,31.70
2023-09-08T13:47:58.571Z,31.83
2023-09-08T13:53:41.937Z,30.57
2023-09-08T13:58:50.628Z,31.34
2023-09-08T14:04:03.339Z,32.04
2023-09-08T14:09:41.820Z,32.26
2023-09-08T14:14:35.970Z,32.31
2023-09-08T14:19:39.781Z,31.16
2023-09-08T14:24:43.794Z,32.49
2023-09-08T14:29:53.348Z,32.51
2023-09-08T14:34:57.380Z,32.70
2023-09-08T14:40:02.601Z,30.61
2023-09-08T14:45:09.866Z,32.60
2023-09-08T14:50:15.167Z,32.60
2023-09-08T14:55:20.430Z,32.51
2023-09-08T15:00:25.940Z,32.55
2023-09-08T15:05:30.015Z,32.72
2023-09-08T15:10:34.015Z,32.77
2023-09-08T15:15:39.208Z,32.81
2023-09-08T15:20:43.403Z,32.64
2023-09-08T15:25:53.455Z,32.92
2023-09-08T15:30:58.788Z,32.77
2023-09-08T15:36:03.261Z,32.61
2023-09-08T15:41:21.550Z,33.41
2023-09-08T15:46:27.254Z,33.23
2023-09-08T15:51:31.406Z,33.20
2023-09-08T15:56:35.524Z,32.91
2023-09-08T16:01:41.153Z,32.87
2023-09-08T16:06:45.162Z,32.85
2023-09-08T16:11:49.512Z,33.06
2023-09-08T16:16:54.994Z,33.20
2023-09-08T16:21:58.859Z,33.18
2023-09-08T16:27:04.612Z,33.34
2023-09-08T16:32:12.668Z,33.17
2023-09-08T16:37:16.484Z,33.30
2023-09-08T16:42:21.165Z,33.42
2023-09-08T16:47:27.236Z,33.23
2023-09-08T16:52:31.197Z,33.22
2023-09-08T16:57:35.251Z,33.54
2023-09-08T17:02:40.580Z,33.56
2023-09-08T17:07:44.685Z,33.47
2023-09-08T17:12:48.454Z,33.32
2023-09-08T17:17:53.808Z,33.17
2023-09-08T17:22:57.752Z,32.93
2023-09-08T17:28:01.995Z,32.68
2023-09-08T17:33:07.272Z,32.45
2023-09-08T17:38:11.099Z,32.16
2023-09-08T17:43:15.107Z,31.84
2023-09-08T17:48:20.413Z,31.82
2023-09-08T17:53:24.312Z,31.31
2023-09-08T17:58:28.230Z,31.33
2023-09-08T18:03:33.633Z,31.01
2023-09-08T18:08:37.579Z,30.95
2023-09-08T18:13:41.432Z,30.71
2023-09-08T18:18:48.542Z,30.72
2023-09-08T18:23:52.449Z,30.51
2023-09-08T18:28:56.231Z,29.99
2023-09-08T18:34:01.754Z,28.96
2023-09-08T18:39:06.616Z,29.92
2023-09-08T18:44:10.446Z,29.56
2023-09-08T18:49:15.586Z,29.79
2023-09-08T18:54:19.621Z,29.53
2023-09-08T18:59:23.608Z,28.83
2023-09-08T19:04:29.355Z,29.33
2023-09-08T19:09:33.145Z,29.06
2023-09-08T19:14:36.992Z,29.00
2023-09-08T19:19:42.335Z,28.33
2023-09-08T19:24:46.754Z,28.52
2023-09-08T19:29:51.485Z,28.58
2023-09-08T19:34:56.742Z,28.18
2023-09-08T19:40:01.030Z,28.25
2023-09-08T19:45:05.225Z,27.75
2023-09-08T19:50:11.044Z,27.98
2023-09-08T19:55:14.787Z,27.80
2023-09-08T20:00:18.745Z,27.58
2023-09-08T20:05:23.950Z,27.56
2023-09-08T20:10:27.894Z,26.69
2023-09-08T20:15:31.910Z,25.79
2023-09-08T20:20:37.197Z,26.92
2023-09-08T20:25:42.080Z,26.97
2023-09-08T20:30:46.070Z,26.41
2023-09-08T20:35:51.304Z,26.67
2023-09-08T20:40:55.145Z,26.35
2023-09-08T20:46:06.187Z,25.23
2023-09-08T20:51:13.190Z,26.15
2023-09-08T20:56:17.086Z,25.87
2023-09-08T21:01:21.005Z,24.07
2023-09-08T21:06:27.224Z,25.85
2023-09-08T21:11:31.894Z,25.64
2023-09-08T21:16:35.668Z,25.22
2023-09-08T21:21:40.980Z,23.97
2023-09-08T21:26:44.992Z,24.71
2023-09-08T21:31:51.031Z,24.10
2023-09-08T21:36:56.340Z,24.12
2023-09-08T21:42:00.970Z,24.78
2023-09-08T21:47:10.146Z,24.71
2023-09-08T21:52:24.343Z,23.37
2023-09-08T21:57:35.904Z,24.42
2023-09-08T22:02:39.889Z,23.97
2023-09-08T22:07:45.156Z,24.24
2023-09-08T22:12:49.123Z,24.09
2023-09-08T22:17:53.118Z,23.89
2023-09-08T22:22:58.342Z,23.92
2023-09-08T22:28:02.179Z,23.78
2023-09-08T22:33:06.219Z,23.68
2023-09-08T22:38:11.516Z,23.66
2023-09-08T22:43:15.447Z,23.52
2023-09-08T22:48:20.545Z,23.24
2023-09-08T22:53:25.882Z,22.60
2023-09-08T22:58:39.591Z,22.70
2023-09-08T23:03:43.656Z,22.84
2023-09-08T23:08:49.242Z,23.14
2023-09-08T23:13:53.786Z,22.15
2023-09-08T23:18:58.780Z,22.64
2023-09-08T23:24:04.719Z,22.93
2023-09-08T23:29:08.530Z,22.27
2023-09-08T23:34:13.815Z,22.61
2023-09-08T23:39:19.399Z,21.87
2023-09-08T23:44:23.766Z,22.68
2023-09-08T23:49:27.529Z,22.63
2023-09-08T23:54:32.696Z,22.61
2023-09-08T23:59:36.351Z,21.72
